Time;durP1;ratioP1;P1;durP2;ratioP2;P2;SDS_P1;SDS_P2;PMS_P1;PMS_P2;Temp;Humidity;BMP_temperature;BMP_pressure;BME280_temperature;BME280_humidity;BME280_pressure;Samples;Min_cycle;Max_cycle;Signal;HPM_P1;HPM_P2
2021/06/06 00:02:14;;;;;;;36.75;33.80;;;;;;;22.53;63.06;101883.50;6129226;28;20764;-53
2021/06/06 00:05:44;;;;;;;38.38;35.47;;;;;;;22.39;64.00;101877.88;6131095;28;20230;-53
2021/06/06 00:09:11;;;;;;;39.85;36.95;;;;;;;22.55;63.57;101880.78;6131642;28;20239;-52
2021/06/06 00:12:32;;;;;;;32.97;30.15;;;;;;;22.57;63.22;101879.78;6135518;28;20317;-56
2021/06/06 00:15:53;;;;;;;36.55;33.67;;;;;;;22.45;64.25;101875.00;6138120;28;20589;-63
2021/06/06 00:19:14;;;;;;;35.80;33.10;;;;;;;22.52;63.97;101881.75;6136301;28;20247;-63
2021/06/06 00:22:35;;;;;;;36.55;33.85;;;;;;;22.22;65.20;101876.78;6132560;28;20235;-63
2021/06/06 00:25:57;;;;;;;38.60;35.55;;;;;;;22.16;65.58;101890.31;6133718;28;20231;-64
2021/06/06 00:29:17;;;;;;;37.10;34.05;;;;;;;22.51;64.45;101882.69;6132738;28;20516;-63
2021/06/06 00:32:38;;;;;;;39.30;36.30;;;;;;;22.10;66.01;101879.06;6132498;28;20235;-65
2021/06/06 00:35:59;;;;;;;38.45;35.33;;;;;;;22.35;65.00;101890.44;6132575;28;20242;-64
2021/06/06 00:39:22;;;;;;;41.15;38.05;;;;;;;22.28;65.32;101886.31;6132432;28;20513;-64
2021/06/06 00:42:45;;;;;;;39.90;36.75;;;;;;;22.00;66.68;101887.41;6129897;28;20885;-64
2021/06/06 00:46:08;;;;;;;41.22;38.13;;;;;;;22.30;65.00;101884.47;6132819;28;20660;-64
2021/06/06 00:54:21;;;;;;;41.30;37.97;;;;;;;22.30;65.53;101897.72;6130021;28;20239;-63
2021/06/06 00:57:43;;;;;;;47.85;44.17;;;;;;;21.80;67.08;101909.41;6119833;28;20813;-64
2021/06/06 01:01:05;;;;;;;47.25;43.45;;;;;;;21.78;67.70;101907.72;6130258;28;20235;-64
2021/06/06 01:04:27;;;;;;;48.17;44.33;;;;;;;21.69;67.92;101908.94;6130454;28;20552;-64
2021/06/06 01:07:49;;;;;;;46.33;42.83;;;;;;;22.05;66.62;101907.59;6130102;28;20227;-63
2021/06/06 01:11:16;;;;;;;49.40;45.70;;;;;;;21.98;66.59;101909.59;6147209;28;20238;-64
2021/06/06 01:14:41;;;;;;;41.17;38.00;;;;;;;22.23;65.93;101907.69;6130450;28;20673;-64
2021/06/06 01:18:14;;;;;;;44.45;41.15;;;;;;;22.11;66.03;101902.88;6123627;28;20271;-65
2021/06/06 01:21:54;;;;;;;45.00;41.45;;;;;;;22.23;65.27;101899.72;6134590;28;20234;-65
2021/06/06 01:25:20;;;;;;;45.60;42.03;;;;;;;21.99;66.27;101895.44;6142620;28;20227;-63
2021/06/06 01:28:46;;;;;;;47.03;43.28;;;;;;;22.18;65.57;101893.75;6134203;28;20281;-65
2021/06/06 01:32:14;;;;;;;52.40;48.28;;;;;;;22.00;66.04;101892.72;6145236;28;20318;-63
2021/06/06 01:35:39;;;;;;;48.38;44.50;;;;;;;22.00;66.28;101894.47;6127293;28;20243;-64
2021/06/06 01:39:04;;;;;;;48.08;44.40;;;;;;;22.03;65.86;101889.94;6127648;28;20314;-63
2021/06/06 01:42:33;;;;;;;51.10;46.95;;;;;;;21.93;66.10;101890.38;6138617;28;20238;-63
2021/06/06 01:45:58;;;;;;;51.85;47.65;;;;;;;21.68;66.81;101893.97;6136308;28;20483;-64
2021/06/06 01:49:23;;;;;;;50.38;46.05;;;;;;;21.99;65.96;101898.06;6132121;28;20234;-64
2021/06/06 01:52:45;;;;;;;48.08;44.38;;;;;;;21.85;66.69;101892.44;6140880;28;20592;-64
2021/06/06 01:56:07;;;;;;;49.13;45.22;;;;;;;21.87;66.41;101896.78;6130817;28;20575;-64
2021/06/06 01:59:40;;;;;;;52.35;48.33;;;;;;;21.63;67.11;101886.22;6148269;28;20293;-64
2021/06/06 02:03:21;;;;;;;48.28;44.22;;;;;;;21.72;66.32;101890.28;6136943;28;20231;-65
2021/06/06 02:06:47;;;;;;;47.22;43.42;;;;;;;21.74;66.16;101888.44;6128515;28;20653;-64
2021/06/06 02:10:24;;;;;;;46.08;42.50;;;;;;;21.56;66.44;101902.41;6148197;28;20885;-65
2021/06/06 02:13:50;;;;;;;48.97;44.90;;;;;;;21.73;65.46;101894.69;6146347;28;20238;-64
2021/06/06 02:17:19;;;;;;;48.20;44.38;;;;;;;21.67;65.54;101892.22;6126348;28;20368;-65
2021/06/06 02:20:50;;;;;;;49.83;45.67;;;;;;;21.55;65.80;101895.38;6135027;28;20322;-63
2021/06/06 02:24:11;;;;;;;48.63;44.92;;;;;;;21.72;65.12;101890.28;6126288;28;20235;-64
2021/06/06 02:27:37;;;;;;;51.38;46.97;;;;;;;21.42;65.72;101898.47;6132268;28;20223;-65
2021/06/06 02:31:05;;;;;;;43.53;40.10;;;;;;;21.30;66.43;101901.53;6132306;28;20231;-64
2021/06/06 02:34:34;;;;;;;46.33;42.42;;;;;;;21.63;64.82;101894.16;6133051;28;20254;-64
2021/06/06 02:37:57;;;;;;;50.88;46.78;;;;;;;21.27;66.13;101903.44;6130401;28;20364;-64
2021/06/06 02:41:24;;;;;;;51.42;47.28;;;;;;;20.88;67.51;101903.94;6130503;28;20231;-64
2021/06/06 02:44:56;;;;;;;50.13;46.13;;;;;;;20.96;66.99;101901.91;6142021;28;20676;-64
2021/06/06 02:48:24;;;;;;;46.97;43.08;;;;;;;21.11;66.72;101900.47;6131630;28;20310;-64
2021/06/06 02:51:51;;;;;;;48.92;44.88;;;;;;;21.19;65.99;101895.75;6125536;28;21122;-64
2021/06/06 02:55:18;;;;;;;52.53;48.22;;;;;;;21.12;66.40;101894.28;6134270;28;20215;-64
2021/06/06 02:58:45;;;;;;;47.60;43.60;;;;;;;20.96;67.10;101897.47;6124679;28;20267;-64
2021/06/06 03:02:12;;;;;;;53.85;49.40;;;;;;;21.12;66.40;101899.59;6133724;28;20616;-64
2021/06/06 03:05:35;;;;;;;48.40;44.50;;;;;;;21.19;66.02;101896.66;6124266;28;21644;-64
2021/06/06 03:09:04;;;;;;;51.30;46.92;;;;;;;21.02;66.31;101899.03;6140686;28;20227;-65
2021/06/06 03:12:29;;;;;;;55.38;50.47;;;;;;;20.67;67.71;101898.50;6124266;28;20274;-64
2021/06/06 03:15:55;;;;;;;55.30;50.65;;;;;;;20.84;66.79;101892.63;6129712;28;20782;-64
2021/06/06 03:19:19;;;;;;;50.30;46.00;;;;;;;20.75;67.04;101892.94;6137544;28;20231;-64
2021/06/06 03:22:43;;;;;;;56.55;51.38;;;;;;;20.70;67.68;101894.88;6130330;28;20230;-64
2021/06/06 03:26:11;;;;;;;55.55;50.70;;;;;;;20.61;67.26;101899.56;6130877;28;20227;-64
2021/06/06 03:29:51;;;;;;;55.20;50.38;;;;;;;21.01;66.03;101898.19;6127167;28;20235;-64
2021/06/06 03:33:17;;;;;;;56.90;51.97;;;;;;;20.88;66.26;101899.53;6127788;28;20227;-64
2021/06/06 03:36:42;;;;;;;52.40;47.67;;;;;;;20.65;66.38;101903.84;6131382;28;20227;-64
2021/06/06 03:40:09;;;;;;;50.90;46.45;;;;;;;20.78;65.41;101911.34;6133248;28;20239;-65
2021/06/06 03:43:43;;;;;;;47.42;43.33;;;;;;;20.78;65.65;101914.88;6132636;28;20523;-64
2021/06/06 03:47:04;;;;;;;50.28;45.97;;;;;;;20.65;65.45;101917.06;6132547;28;20449;-65
2021/06/06 03:50:30;;;;;;;47.55;43.63;;;;;;;20.74;65.14;101912.38;6134588;28;20227;-64
2021/06/06 03:53:51;;;;;;;51.38;47.00;;;;;;;20.85;64.32;101918.16;6126332;28;20234;-64
2021/06/06 03:57:13;;;;;;;47.58;43.75;;;;;;;20.96;64.07;101926.59;6125587;28;20640;-64
2021/06/06 04:00:40;;;;;;;49.63;45.08;;;;;;;20.52;65.40;101917.50;6127742;28;21250;-63
2021/06/06 04:04:03;;;;;;;48.05;43.80;;;;;;;20.45;65.08;101927.41;6125473;28;20254;-64
2021/06/06 04:07:25;;;;;;;52.03;47.38;;;;;;;20.40;65.62;101926.72;6143791;28;20239;-65
2021/06/06 04:10:46;;;;;;;45.38;41.55;;;;;;;20.14;66.30;101935.47;6123643;28;20232;-63
2021/06/06 04:14:08;;;;;;;47.65;43.70;;;;;;;20.46;65.43;101943.25;6133202;28;20227;-64
2021/06/06 04:17:32;;;;;;;44.40;40.67;;;;;;;20.53;65.28;101927.16;6141711;28;20227;-64
2021/06/06 04:20:55;;;;;;;45.35;41.55;;;;;;;20.53;64.95;101935.97;6141975;28;20242;-65
2021/06/06 04:24:16;;;;;;;47.25;42.97;;;;;;;20.57;64.76;101934.97;6124566;28;20267;-65
2021/06/06 04:27:42;;;;;;;44.90;41.10;;;;;;;20.49;64.80;101934.34;6128158;28;20255;-64
2021/06/06 04:31:03;;;;;;;48.33;44.25;;;;;;;20.37;64.92;101932.09;6130159;28;20224;-64
2021/06/06 04:34:28;;;;;;;45.28;41.38;;;;;;;20.55;64.43;101942.09;6127755;28;20532;-65
2021/06/06 04:37:49;;;;;;;42.92;39.42;;;;;;;20.46;64.52;101932.66;6125691;28;20634;-64
2021/06/06 04:41:12;;;;;;;46.78;42.90;;;;;;;20.38;65.04;101928.53;6141047;28;20254;-65
2021/06/06 04:44:34;;;;;;;44.75;41.03;;;;;;;20.44;64.84;101934.50;6127104;28;20239;-64
2021/06/06 04:48:05;;;;;;;46.60;42.58;;;;;;;20.65;63.93;101934.75;6128079;28;20255;-65
2021/06/06 04:51:28;;;;;;;50.47;46.03;;;;;;;20.45;64.62;101940.63;6119627;28;20243;-64
2021/06/06 04:54:56;;;;;;;48.22;44.20;;;;;;;20.50;64.79;101941.38;6144152;28;20238;-63
2021/06/06 04:58:21;;;;;;;46.90;42.55;;;;;;;20.64;64.45;101943.59;6135698;28;20510;-64
2021/06/06 05:01:41;;;;;;;49.03;44.63;;;;;;;20.79;63.95;101942.22;6125226;28;20686;-64
2021/06/06 05:05:08;;;;;;;47.58;43.15;;;;;;;20.52;65.17;101936.88;6131579;28;20325;-64
2021/06/06 05:08:32;;;;;;;47.78;43.78;;;;;;;20.64;64.89;101936.50;6138402;28;20322;-65
2021/06/06 05:11:53;;;;;;;49.70;45.33;;;;;;;20.73;64.66;101937.13;6139532;28;20532;-64
2021/06/06 05:15:16;;;;;;;52.55;47.70;;;;;;;20.56;65.48;101941.16;6134910;28;20747;-65
2021/06/06 05:18:39;;;;;;;47.92;43.80;;;;;;;20.46;65.20;101937.94;6133740;28;20230;-65
2021/06/06 05:22:06;;;;;;;45.45;41.75;;;;;;;20.82;64.27;101936.78;6138784;28;20231;-65
2021/06/06 05:25:30;;;;;;;47.53;43.42;;;;;;;20.77;64.10;101942.25;6133897;28;21834;-65
2021/06/06 05:28:51;;;;;;;46.70;42.78;;;;;;;20.62;64.14;101938.34;6132444;28;20311;-64
2021/06/06 05:32:12;;;;;;;48.05;44.05;;;;;;;20.40;64.89;101945.22;6125982;28;20601;-65
2021/06/06 05:35:35;;;;;;;44.60;40.58;;;;;;;20.10;66.04;101933.84;6134594;28;20247;-64
2021/06/06 05:38:55;;;;;;;43.85;39.92;;;;;;;20.38;64.40;101941.78;6135213;28;20239;-64
2021/06/06 05:42:17;;;;;;;46.50;42.25;;;;;;;20.41;64.51;101941.66;6130964;28;20558;-64
2021/06/06 05:45:38;;;;;;;43.40;39.70;;;;;;;20.36;64.77;101944.47;6129624;28;20256;-64
2021/06/06 05:48:58;;;;;;;38.78;35.33;;;;;;;20.18;65.25;101938.00;6133741;28;20227;-63
2021/06/06 05:52:18;;;;;;;42.95;39.35;;;;;;;20.44;64.53;101944.22;6131206;28;20239;-64
2021/06/06 05:55:39;;;;;;;41.10;37.45;;;;;;;20.27;65.58;101947.41;6129064;28;20230;-64
2021/06/06 05:59:01;;;;;;;41.53;38.08;;;;;;;20.15;65.80;101938.06;6128349;28;20508;-65
2021/06/06 06:02:24;;;;;;;43.50;39.65;;;;;;;20.42;64.62;101952.19;6144908;28;20235;-64
2021/06/06 06:05:45;;;;;;;39.15;35.65;;;;;;;20.53;64.20;101951.84;6136660;28;20621;-63
2021/06/06 06:09:06;;;;;;;38.08;34.78;;;;;;;20.19;65.50;101952.94;6135924;28;20518;-64
2021/06/06 06:12:27;;;;;;;35.80;32.78;;;;;;;20.43;64.35;101955.69;6136614;28;20326;-64
2021/06/06 06:15:49;;;;;;;36.90;33.88;;;;;;;20.52;64.14;101959.84;6133824;28;20234;-64
2021/06/06 06:19:11;;;;;;;30.98;28.38;;;;;;;20.45;64.33;101961.81;6135198;28;20235;-65
2021/06/06 06:22:32;;;;;;;29.00;26.60;;;;;;;20.45;64.26;101961.81;6139309;28;20260;-64
2021/06/06 06:25:53;;;;;;;26.58;24.27;;;;;;;20.40;64.71;101963.75;6138102;28;20255;-64
2021/06/06 06:29:14;;;;;;;24.55;22.65;;;;;;;20.24;64.69;101968.66;6131227;28;20354;-64
2021/06/06 06:32:45;;;;;;;22.80;20.92;;;;;;;20.26;64.78;101975.63;6143370;28;20238;-64
2021/06/06 06:36:06;;;;;;;23.95;22.05;;;;;;;20.26;64.58;101975.63;6134166;28;20235;-65
2021/06/06 06:39:27;;;;;;;22.70;20.80;;;;;;;20.15;65.38;101975.09;6128475;28;20310;-64
2021/06/06 06:42:49;;;;;;;22.90;21.00;;;;;;;19.95;65.31;101982.75;6132842;28;20246;-64
2021/06/06 06:46:09;;;;;;;23.30;21.50;;;;;;;20.43;64.27;101982.16;6132971;28;20281;-64
2021/06/06 06:49:31;;;;;;;27.05;24.85;;;;;;;20.30;64.87;101987.00;6132290;28;20231;-65
2021/06/06 06:52:52;;;;;;;25.92;23.83;;;;;;;20.33;64.54;101994.81;6136829;28;20280;-64
2021/06/06 06:56:12;;;;;;;24.90;22.92;;;;;;;20.54;64.12;101989.75;6128207;28;20597;-64
2021/06/06 06:59:33;;;;;;;26.15;23.95;;;;;;;20.21;65.17;101998.69;6132992;28;20830;-64
2021/06/06 07:02:53;;;;;;;32.22;29.58;;;;;;;20.09;65.43;102001.72;6136973;28;20235;-65
2021/06/06 07:06:16;;;;;;;28.95;26.55;;;;;;;20.44;64.62;101994.47;6133390;28;20235;-64
2021/06/06 07:09:36;;;;;;;29.73;27.25;;;;;;;20.54;64.27;102000.34;6128679;28;20593;-63
2021/06/06 07:12:57;;;;;;;32.50;29.67;;;;;;;20.65;63.52;102006.19;6142377;28;20230;-64
2021/06/06 07:16:19;;;;;;;32.03;29.33;;;;;;;20.58;63.73;102002.84;6130919;28;20413;-64
2021/06/06 07:19:40;;;;;;;31.90;29.15;;;;;;;20.56;63.88;101996.72;6133575;28;20234;-64
2021/06/06 07:23:03;;;;;;;37.70;34.50;;;;;;;20.68;63.52;102005.22;6134959;28;20242;-64
2021/06/06 07:26:27;;;;;;;35.30;32.25;;;;;;;20.46;64.40;102005.88;6131676;28;20266;-65
2021/06/06 07:29:48;;;;;;;34.45;31.42;;;;;;;20.53;63.89;102012.72;6124619;28;20239;-64
2021/06/06 07:33:09;;;;;;;33.45;30.58;;;;;;;20.86;63.02;102012.56;6138339;28;20633;-64
2021/06/06 07:36:30;;;;;;;37.13;33.92;;;;;;;20.58;63.84;102004.63;6128422;28;20227;-63
2021/06/06 07:39:52;;;;;;;34.10;31.20;;;;;;;20.64;63.86;102010.59;6134516;28;20238;-65
2021/06/06 07:43:16;;;;;;;29.05;26.52;;;;;;;21.20;62.91;102006.13;6126178;28;20685;-58
2021/06/06 07:46:37;;;;;;;32.83;29.90;;;;;;;21.04;62.30;102009.28;6133016;28;20343;-59
2021/06/06 07:49:57;;;;;;;36.25;33.08;;;;;;;20.76;63.01;102005.81;6134380;28;20235;-61
2021/06/06 07:53:19;;;;;;;28.35;25.75;;;;;;;21.36;61.05;102014.38;6132369;28;20227;-60
2021/06/06 07:56:41;;;;;;;33.47;30.23;;;;;;;21.61;60.37;102009.09;6131731;28;20283;-59
2021/06/06 08:00:01;;;;;;;34.80;31.95;;;;;;;22.01;60.29;102016.44;6131600;28;20775;-52
2021/06/06 08:03:24;;;;;;;38.10;34.30;;;;;;;22.27;58.38;102009.28;6129401;28;20235;-49
2021/06/06 08:06:45;;;;;;;67.97;62.47;;;;;;;22.08;59.85;102017.06;6131813;28;20238;-55
2021/06/06 08:10:07;;;;;;;62.95;57.75;;;;;;;;;;6133282;28;20239;-55
2021/06/06 08:13:29;;;;;;;1006.83;898.83;;;;;;;22.21;58.76;102009.50;6133951;28;20258;-50
2021/06/06 08:16:50;;;;;;;518.90;473.45;;;;;;;22.15;58.57;102015.03;6128938;28;20858;-52
2021/06/06 08:20:15;;;;;;;278.58;250.05;;;;;;;22.42;57.30;102015.78;6133745;28;20236;-51
2021/06/06 08:23:36;;;;;;;51.72;46.83;;;;;;;22.34;57.82;102017.88;6133514;28;20237;-50
2021/06/06 08:26:56;;;;;;;37.13;33.83;;;;;;;21.87;59.19;102010.78;6132520;28;20317;-52
2021/06/06 08:30:24;;;;;;;36.08;32.42;;;;;;;21.69;59.65;102017.63;6134051;28;20833;-49
2021/06/06 08:33:45;;;;;;;30.40;27.77;;;;;;;21.62;59.67;102016.16;6137247;28;20227;-49
2021/06/06 08:37:06;;;;;;;29.50;27.00;;;;;;;21.41;60.48;102015.94;6137185;28;20521;-50
2021/06/06 08:40:32;;;;;;;30.23;27.42;;;;;;;21.04;61.89;102019.88;6137447;28;20397;-52
2021/06/06 08:43:59;;;;;;;30.77;27.98;;;;;;;21.29;61.17;102019.03;6132077;28;20231;-52
2021/06/06 08:47:32;;;;;;;28.10;25.50;;;;;;;22.06;59.27;102015.38;6133576;28;20235;-51
2021/06/06 08:51:05;;;;;;;30.73;28.10;;;;;;;22.31;58.10;102015.31;6134212;28;20254;-50
2021/06/06 08:54:31;;;;;;;29.25;26.65;;;;;;;22.68;57.08;102011.19;6136497;28;20239;-53
2021/06/06 08:58:00;;;;;;;29.60;27.08;;;;;;;22.43;57.94;102012.22;6131080;28;20346;-51
2021/06/06 09:01:29;;;;;;;30.27;27.50;;;;;;;22.81;57.13;102015.94;6132576;28;20230;-55
2021/06/06 09:04:52;;;;;;;30.85;28.08;;;;;;;21.70;59.75;102023.81;6140311;28;20238;-52
2021/06/06 09:08:17;;;;;;;28.23;25.75;;;;;;;22.33;58.50;102024.09;6136654;28;20608;-50
2021/06/06 09:11:38;;;;;;;30.17;27.58;;;;;;;22.66;57.58;102021.00;6131684;28;20271;-55
2021/06/06 09:14:59;;;;;;;25.15;23.05;;;;;;;22.56;57.91;102026.69;6133268;28;20231;-53
2021/06/06 09:18:22;;;;;;;29.30;26.60;;;;;;;22.79;57.01;102027.56;6132125;28;20330;-56
2021/06/06 09:21:52;;;;;;;29.13;26.15;;;;;;;22.47;57.64;102023.53;6134688;28;20231;-57
2021/06/06 09:25:17;;;;;;;30.38;27.33;;;;;;;22.86;56.48;102029.03;6121630;28;20345;-53
2021/06/06 09:28:39;;;;;;;30.40;27.73;;;;;;;23.37;55.03;102027.75;6135575;28;20234;-57
2021/06/06 09:32:05;;;;;;;33.42;30.17;;;;;;;22.28;58.05;102029.59;6130012;28;20671;-54
2021/06/06 09:35:31;;;;;;;31.77;27.85;;;;;;;22.57;57.95;102039.06;6133561;28;20231;-56
2021/06/06 09:38:56;;;;;;;26.90;24.48;;;;;;;22.72;57.79;102036.69;6128025;28;20509;-55
2021/06/06 09:42:21;;;;;;;31.50;28.45;;;;;;;23.04;56.04;102038.06;6133558;28;20235;-54
2021/06/06 09:45:41;;;;;;;32.08;28.90;;;;;;;23.12;56.34;102035.94;6138570;28;20231;-57
2021/06/06 09:49:14;;;;;;;31.73;28.63;;;;;;;23.15;56.24;102040.25;6136870;28;20235;-56
2021/06/06 09:52:41;;;;;;;31.05;28.30;;;;;;;23.08;56.46;102034.31;6135546;28;21365;-55
2021/06/06 09:56:08;;;;;;;32.58;29.58;;;;;;;22.66;57.39;102036.94;6134498;28;20239;-55
2021/06/06 09:59:32;;;;;;;33.00;29.90;;;;;;;22.77;57.14;102040.03;6139655;28;20548;-55
2021/06/06 10:02:54;;;;;;;30.95;28.05;;;;;;;23.08;56.55;102044.09;6132842;28;20239;-56
2021/06/06 10:06:23;;;;;;;29.88;27.08;;;;;;;22.63;57.74;102037.09;6135891;28;20227;-52
2021/06/06 10:09:50;;;;;;;32.85;29.20;;;;;;;22.86;56.74;102044.97;6134754;28;20258;-53
2021/06/06 10:13:14;;;;;;;28.67;25.88;;;;;;;22.98;56.51;102049.75;6137272;28;20231;-57
2021/06/06 10:16:39;;;;;;;28.05;25.45;;;;;;;23.19;55.86;102048.03;6130032;28;20709;-57
2021/06/06 10:20:07;;;;;;;30.52;27.50;;;;;;;22.82;56.56;102043.38;6135032;28;20235;-57
2021/06/06 10:27:10;;;;;;;30.73;27.73;;;;;;;22.46;58.19;102049.22;6689575;23;20857;-53
2021/06/06 10:30:37;;;;;;;33.92;30.88;;;;;;;21.43;61.86;102048.59;6111185;28;20621;-56
2021/06/06 10:33:59;;;;;;;32.25;28.85;;;;;;;21.76;60.23;102050.09;6111836;28;20235;-58
2021/06/06 10:37:20;;;;;;;28.02;25.30;;;;;;;22.54;58.51;102060.41;6104613;28;20259;-55
2021/06/06 10:40:43;;;;;;;31.33;28.35;;;;;;;22.41;58.46;102056.50;6107002;28;20232;-54
2021/06/06 10:44:09;;;;;;;33.13;29.58;;;;;;;22.86;57.05;102055.59;6099121;28;20645;-54
2021/06/06 10:47:37;;;;;;;30.73;27.60;;;;;;;22.81;56.94;102052.25;6105701;28;20613;-55
2021/06/06 10:51:08;;;;;;;29.15;26.23;;;;;;;23.09;56.21;102051.13;6102145;28;20228;-52
2021/06/06 10:54:34;;;;;;;31.70;28.63;;;;;;;23.17;55.68;102060.50;6105125;28;20506;-55
2021/06/06 10:57:55;;;;;;;30.95;27.90;;;;;;;22.83;56.45;102055.72;6092531;28;20275;-57
2021/06/06 11:01:26;;;;;;;27.40;24.80;;;;;;;22.72;57.09;102057.94;6081666;28;20268;-56
2021/06/06 11:04:50;;;;;;;32.25;29.27;;;;;;;;;;6082028;28;20244;-57
2021/06/06 11:08:39;;;;;;;30.20;27.40;;;;;;;22.25;58.99;102058.88;6086278;28;20236;-54
2021/06/06 11:12:03;;;;;;;32.03;28.92;;;;;;;22.48;58.10;102063.31;6083704;28;20240;-51
2021/06/06 11:15:32;;;;;;;34.95;31.30;;;;;;;22.27;58.59;102066.78;6090923;28;20777;-56
2021/06/06 11:18:55;;;;;;;29.52;26.75;;;;;;;22.65;57.42;102059.13;6083235;28;20235;-55
2021/06/06 11:22:33;;;;;;;29.92;27.33;;;;;;;22.27;58.73;102066.78;6081825;28;20758;-55
2021/06/06 11:25:54;;;;;;;30.75;27.70;;;;;;;22.07;59.69;102071.03;6093501;28;20252;-55
2021/06/06 11:29:19;;;;;;;29.10;26.40;;;;;;;22.33;59.23;102072.75;6083096;28;21195;-55
2021/06/06 11:32:53;;;;;;;31.20;28.27;;;;;;;21.87;60.10;102078.84;6088240;28;20228;-54
2021/06/06 11:36:27;;;;;;;30.10;27.20;;;;;;;22.00;59.67;102069.53;6087054;28;20232;-56
2021/06/06 11:39:49;;;;;;;29.90;27.20;;;;;;;22.29;58.63;102067.59;6087900;28;20229;-57
2021/06/06 11:43:17;;;;;;;31.05;28.08;;;;;;;22.63;57.58;102066.28;6092427;28;20554;-55
2021/06/06 11:46:41;;;;;;;31.30;28.42;;;;;;;22.69;57.34;102064.25;6091288;28;20239;-54
2021/06/06 11:50:09;;;;;;;30.27;27.42;;;;;;;22.60;57.03;102068.13;6088466;28;20599;-55
2021/06/06 11:53:35;;;;;;;31.42;28.38;;;;;;;22.61;57.23;102066.34;6098804;28;20239;-56
2021/06/06 11:57:02;;;;;;;27.67;25.08;;;;;;;22.21;58.65;102067.84;6087396;28;20272;-56
2021/06/06 12:00:29;;;;;;;28.80;26.02;;;;;;;22.38;57.99;102061.94;6088174;28;20638;-53
2021/06/06 12:03:51;;;;;;;29.92;27.27;;;;;;;22.52;57.94;102061.38;6094409;28;20335;-55
2021/06/06 12:07:15;;;;;;;30.40;27.38;;;;;;;22.12;59.11;102065.53;6096322;28;20430;-57
2021/06/06 12:10:40;;;;;;;28.98;26.35;;;;;;;22.52;57.98;102062.25;6091082;28;20240;-54
2021/06/06 12:14:14;;;;;;;30.05;27.40;;;;;;;22.35;58.60;102062.94;6087947;28;20236;-56
2021/06/06 12:17:37;;;;;;;29.85;27.20;;;;;;;21.81;60.49;102062.25;6087380;28;20232;-56
2021/06/06 12:21:00;;;;;;;32.33;29.00;;;;;;;20.43;64.92;102059.78;6082489;28;20264;-52
2021/06/06 12:24:22;;;;;;;29.90;27.20;;;;;;;21.45;61.83;102056.50;6089660;28;20248;-54
2021/06/06 12:27:45;;;;;;;31.80;28.80;;;;;;;21.92;60.09;102066.28;6085837;28;20272;-52
2021/06/06 12:31:28;;;;;;;28.67;26.17;;;;;;;21.89;59.95;102067.28;6087485;28;20343;-50
2021/06/06 12:34:50;;;;;;;28.98;26.13;;;;;;;22.03;59.87;102064.13;6092658;28;20311;-60
2021/06/06 12:38:12;;;;;;;31.52;28.60;;;;;;;22.02;59.91;102067.69;6088701;28;20232;-59
2021/06/06 12:41:38;;;;;;;27.02;24.65;;;;;;;22.55;58.53;102054.19;6088693;28;20232;-59
2021/06/06 12:45:04;;;;;;;28.63;26.13;;;;;;;21.69;60.36;102060.03;6094802;28;20244;-62
2021/06/06 12:48:32;;;;;;;21.42;19.73;;;;;;;22.47;58.75;102064.25;6091548;28;20252;-60
2021/06/06 12:51:52;;;;;;;29.75;27.00;;;;;;;21.97;60.10;102059.91;6084977;28;20240;-60
2021/06/06 12:55:16;;;;;;;21.90;20.00;;;;;;;22.74;57.82;102056.06;6084682;28;20627;-60
2021/06/06 12:58:38;;;;;;;29.67;26.83;;;;;;;22.30;59.11;102062.22;6086249;28;20236;-60
2021/06/06 13:02:08;;;;;;;28.40;25.90;;;;;;;22.28;59.24;102058.78;6085623;28;20256;-59
2021/06/06 13:05:35;;;;;;;25.92;23.42;;;;;;;22.85;57.78;102050.34;6086028;28;20282;-61
2021/06/06 13:09:25;;;;;;;29.27;26.70;;;;;;;22.44;58.93;102059.03;6090126;28;20241;-60
2021/06/06 13:12:46;;;;;;;32.03;29.05;;;;;;;22.45;59.20;102054.59;6092275;28;20516;-60
2021/06/06 13:16:16;;;;;;;33.08;29.83;;;;;;;22.44;59.27;102056.38;6090992;28;20812;-59
2021/06/06 13:19:38;;;;;;;30.27;27.85;;;;;;;22.77;58.19;102053.31;6092369;28;20224;-60
2021/06/06 13:23:09;;;;;;;28.70;26.15;;;;;;;22.88;57.39;102059.06;6079317;28;20324;-61
2021/06/06 13:26:37;;;;;;;29.45;26.92;;;;;;;22.58;58.84;102061.13;6090702;28;20319;-62
2021/06/06 13:30:10;;;;;;;28.45;25.95;;;;;;;22.39;59.33;102059.22;6087443;28;20331;-61
2021/06/06 13:33:30;;;;;;;31.73;28.92;;;;;;;22.12;60.22;102058.47;6082742;28;20232;-61
2021/06/06 13:36:52;;;;;;;28.85;26.33;;;;;;;22.43;59.16;102062.63;6086630;28;20248;-61
2021/06/06 13:40:18;;;;;;;30.30;27.52;;;;;;;22.20;59.66;102063.50;6090331;28;20236;-60
2021/06/06 13:43:39;;;;;;;31.55;28.85;;;;;;;22.63;59.03;102069.81;6091115;28;20255;-59
2021/06/06 13:47:00;;;;;;;33.90;30.70;;;;;;;22.59;58.34;102063.75;6083742;28;20252;-60
2021/06/06 13:50:21;;;;;;;31.75;28.65;;;;;;;22.36;59.21;102069.09;6091790;28;20483;-59
2021/06/06 13:53:42;;;;;;;35.25;31.60;;;;;;;22.56;58.58;102061.19;6085546;28;20229;-60
2021/06/06 13:57:06;;;;;;;32.33;29.23;;;;;;;22.10;59.89;102065.63;6087881;28;20237;-60
2021/06/06 14:00:27;;;;;;;30.02;27.17;;;;;;;21.61;61.84;102067.41;6091585;28;20240;-60
2021/06/06 14:03:48;;;;;;;33.20;30.17;;;;;;;21.67;61.80;102066.31;6086531;28;20729;-61
2021/06/06 14:07:10;;;;;;;32.35;29.23;;;;;;;21.75;61.14;102064.25;6089804;28;20248;-60
2021/06/06 14:10:35;;;;;;;38.38;34.60;;;;;;;20.78;64.42;102067.53;6090547;28;20237;-60
2021/06/06 14:13:57;;;;;;;32.55;29.63;;;;;;;21.83;61.59;102078.97;6088336;28;20240;-62
2021/06/06 14:17:17;;;;;;;27.63;25.00;;;;;;;22.19;59.89;102069.72;6084215;28;20324;-62
2021/06/06 14:20:38;;;;;;;33.15;29.92;;;;;;;22.18;59.39;102079.47;6087425;28;20232;-61
2021/06/06 14:23:59;;;;;;;35.10;31.80;;;;;;;22.01;60.36;102079.22;6089122;28;20232;-60
2021/06/06 14:27:19;;;;;;;35.92;32.55;;;;;;;21.79;60.63;102077.38;6089607;28;20257;-60
2021/06/06 14:30:43;;;;;;;34.13;31.05;;;;;;;21.85;60.51;102075.41;6078162;28;20243;-60
2021/06/06 14:34:05;;;;;;;31.95;29.05;;;;;;;22.21;59.49;102081.97;6088615;28;20259;-59
2021/06/06 14:37:25;;;;;;;35.00;31.73;;;;;;;22.00;60.06;102085.44;6090238;28;20232;-61
2021/06/06 14:40:46;;;;;;;30.70;27.73;;;;;;;21.95;59.98;102082.13;6087846;28;20236;-60
2021/06/06 14:44:06;;;;;;;29.52;26.70;;;;;;;22.02;59.90;102086.25;6085532;28;20237;-61
2021/06/06 14:47:28;;;;;;;32.42;28.95;;;;;;;21.97;59.98;102077.63;6087368;28;20240;-60
2021/06/06 14:50:50;;;;;;;27.90;25.30;;;;;;;22.08;59.66;102082.50;6084164;28;20232;-60
2021/06/06 14:54:14;;;;;;;25.90;23.65;;;;;;;21.93;59.79;102076.00;6083815;28;20233;-60
2021/06/06 14:57:34;;;;;;;29.23;26.38;;;;;;;21.74;60.01;102074.00;6075534;28;20236;-60
2021/06/06 15:00:58;;;;;;;26.33;23.98;;;;;;;21.80;60.33;102080.88;6082060;28;20475;-60
2021/06/06 15:04:20;;;;;;;21.63;19.67;;;;;;;21.87;59.68;102081.50;6087359;28;20642;-60
2021/06/06 15:07:41;;;;;;;24.17;22.00;;;;;;;21.74;59.83;102079.31;6086628;28;20236;-60
2021/06/06 15:11:02;;;;;;;25.42;23.05;;;;;;;21.68;59.95;102076.88;6081024;28;21017;-56
2021/06/06 15:14:23;;;;;;;26.35;23.95;;;;;;;21.63;60.52;102068.22;6088366;28;20240;-60
2021/06/06 15:17:43;;;;;;;25.30;22.98;;;;;;;21.25;61.90;102070.41;6085471;28;20334;-61
2021/06/06 15:21:08;;;;;;;27.10;24.63;;;;;;;21.72;60.44;102065.25;6083826;28;20236;-60
2021/06/06 15:24:29;;;;;;;30.63;27.77;;;;;;;21.21;61.94;102069.63;6088178;28;20232;-60
2021/06/06 15:27:49;;;;;;;28.77;25.98;;;;;;;20.80;63.49;102063.03;6086818;28;20598;-59
2021/06/06 15:31:12;;;;;;;30.70;27.73;;;;;;;21.25;62.31;102059.81;6084534;28;20268;-58
2021/06/06 15:34:33;;;;;;;29.58;26.65;;;;;;;21.71;60.95;102074.09;6084640;28;20260;-59
2021/06/06 15:37:55;;;;;;;30.17;27.05;;;;;;;21.22;62.78;102074.00;6088815;28;20228;-59